createdAt,value
2024-03-12T00:01:10.015Z,35.25
2024-03-12T00:03:45.467Z,34.70
2024-03-12T00:06:13.157Z,35.15
2024-03-12T00:08:43.819Z,34.47
2024-03-12T00:11:11.322Z,34.75
2024-03-12T00:13:38.560Z,34.75
2024-03-12T00:16:06.836Z,34.63
2024-03-12T00:18:34.894Z,34.85
2024-03-12T00:21:02.363Z,34.83
2024-03-12T00:23:30.174Z,34.75
2024-03-12T00:25:57.636Z,35.65
2024-03-12T00:28:25.014Z,34.33
2024-03-12T00:30:54.892Z,33.90
2024-03-12T00:33:22.344Z,35.13
2024-03-12T00:35:49.709Z,36.72
2024-03-12T00:38:19.193Z,36.53
2024-03-12T00:40:49.228Z,36.22
2024-03-12T00:43:16.591Z,35.90
2024-03-12T00:45:46.134Z,36.97
2024-03-12T00:48:15.052Z,36.05
2024-03-12T00:50:46.365Z,35.50
2024-03-12T00:53:15.085Z,36.15
2024-03-12T00:55:43.707Z,35.15
2024-03-12T00:58:13.905Z,34.03
2024-03-12T01:00:42.631Z,34.50
2024-03-12T01:03:10.830Z,35.15
2024-03-12T01:05:39.610Z,34.85
2024-03-12T01:08:08.735Z,34.90
2024-03-12T01:10:37.409Z,33.00
2024-03-12T01:13:12.768Z,33.80
2024-03-12T01:15:41.151Z,31.73
2024-03-12T01:18:09.701Z,32.53
2024-03-12T01:20:37.671Z,33.53
2024-03-12T01:23:08.513Z,32.05
2024-03-12T01:25:37.669Z,31.65
2024-03-12T01:28:09.140Z,32.22
2024-03-12T01:30:38.323Z,33.22
2024-03-12T01:33:09.464Z,32.78
2024-03-12T01:35:41.111Z,33.15
2024-03-12T01:38:12.013Z,32.77
2024-03-12T01:40:40.802Z,31.65
2024-03-12T01:43:09.211Z,33.67
2024-03-12T01:45:37.468Z,34.03
2024-03-12T01:48:09.993Z,34.53
2024-03-12T01:50:40.410Z,34.85
2024-03-12T01:53:08.952Z,35.30
2024-03-12T01:55:39.441Z,36.85
2024-03-12T01:58:07.704Z,35.88
2024-03-12T02:00:35.614Z,36.25
2024-03-12T02:03:03.086Z,37.38
2024-03-12T02:05:30.629Z,36.63
2024-03-12T02:07:58.034Z,37.17
2024-03-12T02:10:26.336Z,38.15
2024-03-12T02:12:53.997Z,37.50
2024-03-12T02:15:24.978Z,36.95
2024-03-12T02:17:55.340Z,37.55
2024-03-12T02:20:24.289Z,36.17
2024-03-12T02:22:56.813Z,36.83
2024-03-12T02:25:24.705Z,38.72
2024-03-12T02:27:53.419Z,37.70
2024-03-12T02:30:22.037Z,36.28
2024-03-12T02:32:50.101Z,37.88
2024-03-12T02:35:18.458Z,38.38
2024-03-12T02:37:46.368Z,36.35
2024-03-12T02:40:15.047Z,35.47
2024-03-12T02:42:43.948Z,35.67
2024-03-12T02:45:21.959Z,34.67
2024-03-12T02:47:49.573Z,35.17
2024-03-12T02:50:17.585Z,34.10
2024-03-12T02:52:46.832Z,34.42
2024-03-12T02:55:14.867Z,32.10
2024-03-12T02:57:42.595Z,31.15
2024-03-12T03:00:14.390Z,30.80
2024-03-12T03:02:45.186Z,31.02
2024-03-12T03:05:14.321Z,31.33
2024-03-12T03:07:42.550Z,31.17
2024-03-12T03:10:14.314Z,31.52
2024-03-12T03:12:45.589Z,30.58
2024-03-12T03:15:14.078Z,30.33
2024-03-12T03:17:47.094Z,29.27
2024-03-12T03:20:17.294Z,31.08
2024-03-12T03:22:45.755Z,29.98
2024-03-12T03:25:13.898Z,28.92
2024-03-12T03:27:41.562Z,30.33
2024-03-12T03:30:11.425Z,29.85
2024-03-12T03:32:38.714Z,30.20
2024-03-12T03:35:09.124Z,29.75
2024-03-12T03:37:36.801Z,29.92
2024-03-12T03:40:05.944Z,29.50
2024-03-12T03:42:33.339Z,29.40
2024-03-12T03:45:00.639Z,26.67
2024-03-12T03:47:35.191Z,28.30
2024-03-12T03:50:06.447Z,27.25
2024-03-12T03:52:33.863Z,25.25
2024-03-12T03:55:01.268Z,26.83
2024-03-12T03:57:28.533Z,25.58
2024-03-12T03:59:57.807Z,24.50
2024-03-12T04:02:26.080Z,24.60
2024-03-12T04:04:53.364Z,24.50
2024-03-12T04:07:26.630Z,22.70
2024-03-12T04:09:56.019Z,23.45
2024-03-12T04:12:23.777Z,23.67
2024-03-12T04:14:51.004Z,22.50
2024-03-12T04:17:20.245Z,23.75
2024-03-12T04:19:49.117Z,22.77
2024-03-12T04:22:20.400Z,23.33
2024-03-12T04:24:48.065Z,23.70
2024-03-12T04:27:16.183Z,23.20
2024-03-12T04:29:43.900Z,24.58
2024-03-12T04:32:11.308Z,24.17
2024-03-12T04:34:38.614Z,25.23
2024-03-12T04:37:06.456Z,25.38
2024-03-12T04:39:34.446Z,22.90
2024-03-12T04:42:06.336Z,24.83
2024-03-12T04:44:34.403Z,25.48
2024-03-12T04:47:02.032Z,24.85
2024-03-12T04:49:29.380Z,26.88
2024-03-12T04:51:57.044Z,25.90
2024-03-12T04:54:24.326Z,24.45
2024-03-12T04:56:52.079Z,24.52
2024-03-12T04:59:19.386Z,25.65
2024-03-12T05:01:48.909Z,24.80
2024-03-12T05:04:22.542Z,25.40
2024-03-12T05:06:51.192Z,25.17
2024-03-12T05:09:19.504Z,25.58
2024-03-12T05:11:47.304Z,25.42
2024-03-12T05:14:14.850Z,24.85
2024-03-12T05:16:42.767Z,23.30
2024-03-12T05:19:12.253Z,25.13
2024-03-12T05:21:39.966Z,23.13
2024-03-12T05:24:07.534Z,22.40
2024-03-12T05:26:37.737Z,23.42
2024-03-12T05:29:05.308Z,24.92
2024-03-12T05:31:38.670Z,22.73
2024-03-12T05:34:28.915Z,24.05
2024-03-12T05:37:05.775Z,24.75
2024-03-12T05:39:49.673Z,23.30
2024-03-12T05:42:35.508Z,24.70
2024-03-12T05:45:21.316Z,26.05
2024-03-12T05:48:07.207Z,23.90
2024-03-12T05:50:34.474Z,26.55
2024-03-12T05:53:01.643Z,27.60
2024-03-12T05:55:28.766Z,27.48
2024-03-12T05:57:55.937Z,27.70
2024-03-12T06:00:24.426Z,26.38
2024-03-12T06:02:51.677Z,25.25
2024-03-12T06:05:18.940Z,26.23
2024-03-12T06:07:46.387Z,25.17
2024-03-12T06:10:13.687Z,24.23
2024-03-12T06:12:41.536Z,24.98
2024-03-12T06:15:12.494Z,25.95
2024-03-12T06:17:39.792Z,27.05
2024-03-12T06:20:11.182Z,25.27
2024-03-12T06:22:39.010Z,25.50
2024-03-12T06:25:10.487Z,24.23
2024-03-12T06:27:41.712Z,26.20
2024-03-12T06:30:09.665Z,24.90
2024-03-12T06:32:36.918Z,25.38
2024-03-12T06:35:04.844Z,22.63
2024-03-12T06:37:32.021Z,23.83
2024-03-12T06:39:59.992Z,23.23
2024-03-12T06:42:27.727Z,23.38
2024-03-12T06:44:55.921Z,23.23
2024-03-12T06:47:25.545Z,22.15
2024-03-12T06:49:55.606Z,22.13
2024-03-12T06:52:27.714Z,22.40
2024-03-12T06:54:55.088Z,22.05
2024-03-12T06:57:23.489Z,23.08
2024-03-12T06:59:51.096Z,21.55
2024-03-12T07:02:23.534Z,21.63
2024-03-12T07:04:52.172Z,22.00
2024-03-12T07:07:20.749Z,22.20
2024-03-12T07:09:50.485Z,22.85
2024-03-12T07:12:19.596Z,22.48
2024-03-12T07:14:55.813Z,23.90
2024-03-12T07:17:23.981Z,21.50
2024-03-12T07:19:52.162Z,23.02
2024-03-12T07:22:19.554Z,22.45
2024-03-12T07:24:47.096Z,22.48
2024-03-12T07:27:14.804Z,21.98
2024-03-12T07:29:45.120Z,22.33
2024-03-12T07:32:14.444Z,21.90
2024-03-12T07:34:43.322Z,21.52
2024-03-12T07:37:13.094Z,21.35
2024-03-12T07:39:40.453Z,21.20
2024-03-12T07:42:13.486Z,22.15
2024-03-12T07:44:42.740Z,20.75
2024-03-12T07:47:11.369Z,20.98
2024-03-12T07:49:38.944Z,22.42
2024-03-12T07:52:07.200Z,21.00
2024-03-12T07:54:35.135Z,20.30
2024-03-12T07:57:02.813Z,19.27
2024-03-12T07:59:31.457Z,20.30
2024-03-12T08:01:59.455Z,19.95
2024-03-12T08:04:27.278Z,18.80
2024-03-12T08:06:55.268Z,18.50
2024-03-12T08:09:22.541Z,18.70
2024-03-12T08:11:50.667Z,18.48
2024-03-12T08:14:18.797Z,18.10
2024-03-12T08:16:46.112Z,19.48
2024-03-12T08:19:14.032Z,18.05
2024-03-12T08:21:41.410Z,17.55
2024-03-12T08:24:11.942Z,18.52
2024-03-12T08:26:39.225Z,17.48
2024-03-12T08:29:06.489Z,17.20
2024-03-12T08:31:38.716Z,18.42
2024-03-12T08:34:10.542Z,16.75
2024-03-12T08:36:37.900Z,16.98
2024-03-12T08:39:05.892Z,17.92
2024-03-12T08:41:34.401Z,17.20
2024-03-12T08:44:02.108Z,17.50
2024-03-12T08:46:29.961Z,18.08
2024-03-12T08:48:57.313Z,17.65
2024-03-12T08:51:25.243Z,18.63
2024-03-12T08:53:52.730Z,16.77
2024-03-12T08:56:22.705Z,17.60
2024-03-12T08:58:50.450Z,18.73
2024-03-12T09:01:19.445Z,17.80
2024-03-12T09:03:47.593Z,18.00
2024-03-12T09:06:15.046Z,17.70
2024-03-12T09:08:43.761Z,17.10
2024-03-12T09:11:17.106Z,17.73
2024-03-12T09:13:46.324Z,18.10
2024-03-12T09:16:14.342Z,18.60
2024-03-12T09:18:43.500Z,17.83
2024-03-12T09:21:15.176Z,17.05
2024-03-12T09:23:53.241Z,18.65
2024-03-12T09:26:29.371Z,18.33
2024-03-12T09:28:56.967Z,18.45
2024-03-12T09:31:24.728Z,19.70
2024-03-12T09:33:53.380Z,19.05
2024-03-12T09:36:22.392Z,19.27
2024-03-12T09:38:51.922Z,18.15
2024-03-12T09:41:25.164Z,19.55
2024-03-12T09:46:23.723Z,17.70
2024-03-12T09:48:52.954Z,18.77
2024-03-12T09:51:22.546Z,18.58
2024-03-12T09:53:50.788Z,18.75
2024-03-12T09:56:19.615Z,19.13
2024-03-12T09:58:48.802Z,19.33
2024-03-12T10:01:16.409Z,19.52
2024-03-12T10:03:43.923Z,19.20
2024-03-12T10:06:11.255Z,18.40
2024-03-12T10:08:38.514Z,19.67
2024-03-12T10:11:10.110Z,19.48
2024-03-12T10:13:41.609Z,19.30
2024-03-12T10:16:09.645Z,19.45
2024-03-12T10:18:40.221Z,19.55
2024-03-12T10:21:08.300Z,19.40
2024-03-12T10:23:41.323Z,19.58
2024-03-12T10:26:17.395Z,19.40
2024-03-12T10:28:47.152Z,19.73
2024-03-12T10:31:16.132Z,20.20
2024-03-12T10:33:49.797Z,18.98
2024-03-12T10:36:34.652Z,20.25
2024-03-12T10:39:07.928Z,20.48
2024-03-12T10:41:35.498Z,20.42
2024-03-12T10:44:17.552Z,21.92
2024-03-12T10:46:46.304Z,22.50
2024-03-12T10:49:18.712Z,20.90
2024-03-12T10:51:46.432Z,21.17
2024-03-12T10:54:15.671Z,21.98
2024-03-12T10:56:46.984Z,22.10
2024-03-12T10:59:17.575Z,22.77
2024-03-12T11:01:45.125Z,21.75
2024-03-12T11:04:14.575Z,21.67
2024-03-12T11:06:41.997Z,21.80
2024-03-12T11:09:13.182Z,21.60
2024-03-12T11:11:40.733Z,23.00
2024-03-12T11:14:08.946Z,23.27
2024-03-12T11:16:37.076Z,23.48
2024-03-12T11:19:24.145Z,23.15
2024-03-12T11:22:10.924Z,24.58
2024-03-12T11:24:48.987Z,24.40
2024-03-12T11:27:26.753Z,23.30
2024-03-12T11:30:09.437Z,23.42
2024-03-12T11:32:43.073Z,24.08
2024-03-12T11:35:19.341Z,23.48
2024-03-12T11:37:48.601Z,23.85
2024-03-12T11:40:30.421Z,23.33
2024-03-12T11:42:59.511Z,23.95
2024-03-12T11:45:49.011Z,25.58
2024-03-12T11:48:22.226Z,24.67
2024-03-12T11:51:00.347Z,25.48
2024-03-12T11:53:39.426Z,25.15
2024-03-12T11:56:09.219Z,25.02
2024-03-12T11:58:49.189Z,25.98
2024-03-12T12:01:40.105Z,25.77
2024-03-12T12:04:10.926Z,25.92
2024-03-12T12:06:38.409Z,25.02
2024-03-12T12:09:09.862Z,24.25
2024-03-12T12:11:39.582Z,24.40
2024-03-12T12:14:10.269Z,23.77
2024-03-12T12:16:39.602Z,24.55
2024-03-12T12:19:13.800Z,24.80
2024-03-12T12:21:46.482Z,24.60
2024-03-12T12:24:14.854Z,24.23
2024-03-12T12:26:45.818Z,25.00
2024-03-12T12:29:15.838Z,24.60
2024-03-12T12:31:44.055Z,24.20
2024-03-12T12:34:12.545Z,23.38
2024-03-12T12:36:45.025Z,23.13
2024-03-12T12:39:18.136Z,24.52
2024-03-12T12:41:47.393Z,23.42
2024-03-12T12:44:22.163Z,22.90
2024-03-12T12:46:50.067Z,22.10
2024-03-12T12:49:18.654Z,21.77
2024-03-12T12:51:47.372Z,22.55
2024-03-12T12:54:20.018Z,21.95
2024-03-12T12:56:47.940Z,22.20
2024-03-12T12:59:24.359Z,22.70
2024-03-12T13:01:52.082Z,22.63
2024-03-12T13:04:28.892Z,23.25
2024-03-12T13:06:58.096Z,22.92
2024-03-12T13:09:35.275Z,22.98
2024-03-12T13:12:11.023Z,24.08
2024-03-12T13:14:38.473Z,24.55
2024-03-12T13:17:07.174Z,24.83
2024-03-12T13:19:34.785Z,24.60
2024-03-12T13:22:04.004Z,23.92
2024-03-12T13:24:33.048Z,24.30
2024-03-12T13:27:00.483Z,24.13
2024-03-12T13:29:29.245Z,23.30
2024-03-12T13:31:56.707Z,25.40
2024-03-12T13:34:25.041Z,23.02
2024-03-12T13:36:53.025Z,23.25
2024-03-12T13:39:20.649Z,22.98
2024-03-12T13:41:47.948Z,23.42
2024-03-12T13:44:15.361Z,22.70
2024-03-12T13:46:44.667Z,23.13
2024-03-12T13:49:16.782Z,23.38
2024-03-12T13:51:46.411Z,23.63
2024-03-12T13:54:13.800Z,21.08
2024-03-12T13:56:41.291Z,22.98
2024-03-12T13:59:08.788Z,23.08
2024-03-12T14:01:36.505Z,22.42
2024-03-12T14:04:04.259Z,21.90
2024-03-12T14:06:33.621Z,23.25
2024-03-12T14:09:01.009Z,24.05
2024-03-12T14:11:28.574Z,23.50
2024-03-12T14:13:56.711Z,23.10
2024-03-12T14:16:24.943Z,24.08
2024-03-12T14:18:53.909Z,23.63
2024-03-12T14:21:22.383Z,25.65
2024-03-12T14:23:50.309Z,25.08
2024-03-12T14:26:17.908Z,24.00
2024-03-12T14:28:46.557Z,24.77
2024-03-12T14:31:17.348Z,24.35
2024-03-12T14:33:44.826Z,25.17
2024-03-12T14:36:12.242Z,25.60
2024-03-12T14:38:39.627Z,24.02
2024-03-12T14:41:10.039Z,24.95
2024-03-12T14:43:37.293Z,24.58
2024-03-12T14:46:05.991Z,24.45
2024-03-12T14:48:35.318Z,25.77
2024-03-12T14:51:02.707Z,24.25
2024-03-12T14:53:29.981Z,24.52
2024-03-12T14:56:00.408Z,23.25
2024-03-12T14:58:28.671Z,24.42
2024-03-12T15:00:55.882Z,23.70
2024-03-12T15:03:23.118Z,24.25
2024-03-12T15:05:54.810Z,23.77
2024-03-12T15:08:22.133Z,24.02
2024-03-12T15:10:49.394Z,24.98
2024-03-12T15:13:18.714Z,22.83
2024-03-12T15:15:48.552Z,23.13
2024-03-12T15:18:17.415Z,24.75
2024-03-12T15:20:47.318Z,24.83
2024-03-12T15:23:14.543Z,24.10
2024-03-12T15:25:43.131Z,25.27
2024-03-12T15:28:10.473Z,24.88
2024-03-12T15:30:41.187Z,25.10
2024-03-12T15:33:13.879Z,24.05
2024-03-12T15:35:53.776Z,24.52
2024-03-12T15:38:21.665Z,24.50
2024-03-12T15:40:49.531Z,24.92
2024-03-12T15:43:20.383Z,25.67
2024-03-12T15:45:47.676Z,25.63
2024-03-12T15:48:14.980Z,23.35
2024-03-12T15:50:42.242Z,25.88
2024-03-12T15:53:12.828Z,24.65
2024-03-12T15:55:41.442Z,24.75
2024-03-12T15:58:08.955Z,24.98
2024-03-12T16:00:37.446Z,25.92
2024-03-12T16:03:05.674Z,25.65
2024-03-12T16:05:32.836Z,25.15
2024-03-12T16:08:04.430Z,24.98
2024-03-12T16:10:33.087Z,25.25
2024-03-12T16:13:04.005Z,25.77
2024-03-12T16:15:32.836Z,25.52
2024-03-12T16:18:03.451Z,25.42
2024-03-12T16:20:30.716Z,25.15
2024-03-12T16:22:57.905Z,24.25
2024-03-12T16:25:25.215Z,25.50
2024-03-12T16:27:52.474Z,24.73
2024-03-12T16:30:28.706Z,24.95
2024-03-12T16:32:59.453Z,23.45
2024-03-12T16:35:30.335Z,22.63
2024-03-12T16:40:28.569Z,21.73
2024-03-12T16:42:57.069Z,22.77
2024-03-12T16:45:30.847Z,21.70
2024-03-12T16:48:02.436Z,21.38
2024-03-12T16:50:29.621Z,21.33
2024-03-12T16:52:56.876Z,20.98
2024-03-12T16:55:24.514Z,21.98
2024-03-12T16:57:52.236Z,21.33
2024-03-12T17:00:19.810Z,21.60
2024-03-12T17:02:49.255Z,21.95
2024-03-12T17:05:24.034Z,21.55
2024-03-12T17:07:59.698Z,21.92
2024-03-12T17:10:28.870Z,19.73
2024-03-12T17:12:57.095Z,18.80
2024-03-12T17:15:25.480Z,18.20
2024-03-12T17:17:57.101Z,18.45
2024-03-12T17:20:28.394Z,16.48
2024-03-12T17:22:56.703Z,16.27
2024-03-12T17:25:25.223Z,14.43
2024-03-12T17:27:53.637Z,14.02
2024-03-12T17:30:25.377Z,13.60
2024-03-12T17:32:56.628Z,12.68
2024-03-12T17:35:24.753Z,12.00
2024-03-12T17:38:02.177Z,12.43
2024-03-12T17:40:33.774Z,11.55
2024-03-12T17:43:09.930Z,12.55
2024-03-12T17:45:39.089Z,11.45
2024-03-12T17:48:10.027Z,10.80
2024-03-12T17:50:39.064Z,11.43
2024-03-12T17:53:10.299Z,12.27
2024-03-12T17:55:39.478Z,11.27
2024-03-12T17:58:07.553Z,11.48
2024-03-12T18:00:37.915Z,10.98
2024-03-12T18:03:07.385Z,12.07
2024-03-12T18:05:34.925Z,11.48
2024-03-12T18:08:08.448Z,12.35
2024-03-12T18:10:37.507Z,12.35
2024-03-12T18:13:05.069Z,11.98
2024-03-12T18:15:32.534Z,12.05
2024-03-12T18:18:01.919Z,11.65
2024-03-12T18:20:31.392Z,13.00
2024-03-12T18:23:01.742Z,12.82
2024-03-12T18:25:31.602Z,14.10
2024-03-12T18:27:59.125Z,12.93
2024-03-12T18:30:28.492Z,13.00
2024-03-12T18:32:55.999Z,13.48
2024-03-12T18:35:23.907Z,13.20
2024-03-12T18:37:52.261Z,13.18
2024-03-12T18:40:23.359Z,13.85
2024-03-12T18:42:53.356Z,12.88
2024-03-12T18:45:23.660Z,12.30
2024-03-12T18:47:54.249Z,12.73
2024-03-12T18:50:25.911Z,12.40
2024-03-12T18:52:53.760Z,12.68
2024-03-12T18:55:23.318Z,12.95
2024-03-12T18:57:52.042Z,12.73
2024-03-12T19:00:20.254Z,13.43
2024-03-12T19:02:49.711Z,13.20
2024-03-12T19:05:21.755Z,13.80
2024-03-12T19:07:51.743Z,12.68
2024-03-12T19:10:21.154Z,14.38
2024-03-12T19:12:49.238Z,14.02
2024-03-12T19:15:22.449Z,14.15
2024-03-12T19:17:51.793Z,14.02
2024-03-12T19:20:21.064Z,14.20
2024-03-12T19:22:51.642Z,13.90
2024-03-12T19:25:20.011Z,14.35
2024-03-12T19:27:52.812Z,13.63
2024-03-12T19:30:21.437Z,13.18
2024-03-12T19:32:53.342Z,14.65
2024-03-12T19:35:21.033Z,15.05
2024-03-12T19:37:50.144Z,13.45
2024-03-12T19:40:18.335Z,15.10
2024-03-12T19:42:50.685Z,14.25
2024-03-12T19:45:28.585Z,14.30
2024-03-12T19:48:01.261Z,14.13
2024-03-12T19:50:29.361Z,15.23
2024-03-12T19:52:57.716Z,14.05
2024-03-12T19:55:30.219Z,13.15
2024-03-12T19:58:06.244Z,13.98
2024-03-12T20:00:34.876Z,13.38
2024-03-12T20:03:07.541Z,14.18
2024-03-12T20:05:38.371Z,13.85
2024-03-12T20:08:09.884Z,13.52
2024-03-12T20:10:40.028Z,14.38
2024-03-12T20:13:44.353Z,13.10
2024-03-12T20:16:16.346Z,14.18
2024-03-12T20:18:47.109Z,13.20
2024-03-12T20:21:20.464Z,11.93
2024-03-12T20:23:47.705Z,12.02
2024-03-12T20:26:15.661Z,12.27
2024-03-12T20:28:43.031Z,11.48
2024-03-12T20:31:10.916Z,11.98
2024-03-12T20:33:39.830Z,11.80
2024-03-12T20:36:08.463Z,10.65
2024-03-12T20:38:35.621Z,12.50
2024-03-12T20:41:03.939Z,11.55
2024-03-12T20:43:31.318Z,11.73
2024-03-12T20:46:00.609Z,11.57
2024-03-12T20:48:32.746Z,11.18
2024-03-12T20:51:00.142Z,11.45
2024-03-12T20:53:28.304Z,10.63
2024-03-12T20:55:57.016Z,11.63
2024-03-12T20:58:24.710Z,10.48
2024-03-12T21:00:52.963Z,10.60
2024-03-12T21:03:20.584Z,10.25
2024-03-12T21:05:48.807Z,9.57
2024-03-12T21:08:17.669Z,10.98
2024-03-12T21:10:46.552Z,10.10
2024-03-12T21:13:14.954Z,10.52
2024-03-12T21:15:42.486Z,10.57
2024-03-12T21:18:10.799Z,9.88
2024-03-12T21:20:38.083Z,10.85
2024-03-12T21:23:07.058Z,10.93
2024-03-12T21:25:35.029Z,10.50
2024-03-12T21:28:02.465Z,9.70
2024-03-12T21:30:29.721Z,9.85
2024-03-12T21:32:56.949Z,9.77
2024-03-12T21:35:27.087Z,10.02
2024-03-12T21:37:54.363Z,10.00
2024-03-12T21:40:22.483Z,9.60
2024-03-12T21:42:49.733Z,9.18
2024-03-12T21:45:19.278Z,10.07
2024-03-12T21:47:48.671Z,10.98
2024-03-12T21:50:17.195Z,11.73
2024-03-12T21:52:45.973Z,11.80
2024-03-12T21:55:13.508Z,11.98
2024-03-12T21:57:44.445Z,13.07
2024-03-12T22:00:20.221Z,11.13
2024-03-12T22:02:49.322Z,11.48
2024-03-12T22:05:17.747Z,10.88
2024-03-12T22:07:45.527Z,10.93
2024-03-12T22:10:13.891Z,10.65
2024-03-12T22:12:42.495Z,12.73
2024-03-12T22:15:13.109Z,10.73
2024-03-12T22:17:44.631Z,11.77
2024-03-12T22:20:17.868Z,11.18
2024-03-12T22:22:45.924Z,10.63
2024-03-12T22:25:15.911Z,10.77
2024-03-12T22:27:44.988Z,13.18
2024-03-12T22:30:13.468Z,12.50
2024-03-12T22:32:43.471Z,11.88
2024-03-12T22:35:11.676Z,12.27
2024-03-12T22:37:39.416Z,11.60
2024-03-12T22:40:11.119Z,11.23
2024-03-12T22:42:39.756Z,11.98
2024-03-12T22:45:08.395Z,11.32
2024-03-12T22:47:36.103Z,11.25
2024-03-12T22:50:03.772Z,12.43
2024-03-12T22:52:31.993Z,13.48
2024-03-12T22:54:59.392Z,12.50
2024-03-12T22:57:28.078Z,13.45
2024-03-12T22:59:55.573Z,13.20
2024-03-12T23:02:23.555Z,12.90
2024-03-12T23:04:54.687Z,13.38
2024-03-12T23:07:22.218Z,14.02
2024-03-12T23:09:49.813Z,13.60
2024-03-12T23:12:17.100Z,14.27
2024-03-12T23:14:44.561Z,16.38
2024-03-12T23:17:11.774Z,12.82
2024-03-12T23:19:41.985Z,11.93
2024-03-12T23:22:10.412Z,12.77
2024-03-12T23:24:39.102Z,12.57
2024-03-12T23:27:06.741Z,13.30
2024-03-12T23:29:34.077Z,13.18
2024-03-12T23:32:01.261Z,11.32
2024-03-12T23:34:28.575Z,11.60
2024-03-12T23:36:55.833Z,10.82
2024-03-12T23:39:24.969Z,10.90
2024-03-12T23:41:53.659Z,11.00
2024-03-12T23:44:20.953Z,11.27
2024-03-12T23:46:48.336Z,11.02
2024-03-12T23:49:15.538Z,11.45
2024-03-12T23:51:42.941Z,11.70
2024-03-12T23:54:10.099Z,12.10
2024-03-12T23:56:39.522Z,12.07
2024-03-12T23:59:07.001Z,11.48
